createdAt,value
2023-05-08T00:01:29.865Z,64.23
2023-05-08T00:03:59.578Z,64.26
2023-05-08T00:06:31.786Z,64.40
2023-05-08T00:09:01.382Z,64.38
2023-05-08T00:11:31.053Z,64.54
2023-05-08T00:14:00.776Z,64.51
2023-05-08T00:16:30.296Z,64.43
2023-05-08T00:18:59.916Z,64.58
2023-05-08T00:21:32.260Z,64.45
2023-05-08T00:24:01.721Z,64.66
2023-05-08T00:26:31.154Z,64.69
2023-05-08T00:29:00.716Z,64.76
2023-05-08T00:31:30.450Z,64.62
2023-05-08T00:34:00.042Z,64.96
2023-05-08T00:36:32.412Z,65.03
2023-05-08T00:39:01.916Z,64.82
2023-05-08T00:41:31.718Z,65.06
2023-05-08T00:44:01.240Z,64.90
2023-05-08T00:46:31.239Z,65.14
2023-05-08T00:49:01.257Z,65.17
2023-05-08T00:51:33.623Z,65.16
2023-05-08T00:54:03.461Z,64.99
2023-05-08T00:56:35.262Z,65.00
2023-05-08T00:59:06.440Z,65.07
2023-05-08T01:01:37.527Z,65.37
2023-05-08T01:04:08.686Z,65.51
2023-05-08T01:06:40.870Z,65.42
2023-05-08T01:09:11.514Z,65.43
2023-05-08T01:11:48.084Z,65.27
2023-05-08T01:14:23.253Z,65.37
2023-05-08T01:17:01.424Z,65.22
2023-05-08T01:19:51.151Z,64.95
2023-05-08T01:22:53.462Z,65.12
2023-05-08T01:25:49.224Z,65.17
2023-05-08T01:28:45.651Z,65.04
2023-05-08T01:31:23.793Z,64.92
2023-05-08T01:34:02.611Z,64.84
2023-05-08T01:36:36.865Z,64.93
2023-05-08T01:39:17.342Z,65.23
2023-05-08T01:41:53.380Z,65.16
2023-05-08T01:44:27.558Z,65.22
2023-05-08T01:46:57.259Z,65.00
2023-05-08T01:49:32.987Z,64.71
2023-05-08T01:52:07.434Z,64.57
2023-05-08T01:54:42.238Z,64.66
2023-05-08T01:57:13.507Z,64.51
2023-05-08T01:59:45.932Z,64.62
2023-05-08T02:02:17.158Z,64.50
2023-05-08T02:04:51.196Z,64.48
2023-05-08T02:07:23.506Z,64.32
2023-05-08T02:09:54.425Z,64.45
2023-05-08T02:12:25.253Z,64.76
2023-05-08T02:14:56.650Z,64.69
2023-05-08T02:17:27.309Z,64.63
2023-05-08T02:20:01.078Z,64.55
2023-05-08T02:22:31.773Z,64.37
2023-05-08T02:25:01.559Z,64.33
2023-05-08T02:27:33.058Z,64.47
2023-05-08T02:30:03.737Z,64.55
2023-05-08T02:32:34.867Z,64.69
2023-05-08T02:35:08.346Z,64.70
2023-05-08T02:37:39.122Z,64.76
2023-05-08T02:40:12.541Z,64.70
2023-05-08T02:42:42.744Z,64.53
2023-05-08T02:45:14.492Z,64.42
2023-05-08T02:47:52.912Z,64.49
2023-05-08T02:50:31.149Z,64.74
2023-05-08T02:53:06.486Z,64.54
2023-05-08T02:55:42.744Z,64.59
2023-05-08T02:58:20.018Z,64.79
2023-05-08T03:00:55.706Z,64.78
2023-05-08T03:03:28.077Z,64.98
2023-05-08T03:06:05.400Z,64.76
2023-05-08T03:08:37.970Z,65.17
2023-05-08T03:11:12.468Z,65.02
2023-05-08T03:13:44.561Z,64.67
2023-05-08T03:16:21.196Z,65.03
2023-05-08T03:18:55.576Z,65.14
2023-05-08T03:21:30.940Z,65.38
2023-05-08T03:24:04.936Z,65.38
2023-05-08T03:26:34.754Z,65.42
2023-05-08T03:29:05.466Z,65.29
2023-05-08T03:31:37.938Z,65.52
2023-05-08T03:34:08.235Z,65.51
2023-05-08T03:36:40.671Z,65.58
2023-05-08T03:39:10.422Z,65.79
2023-05-08T03:41:39.925Z,65.85
2023-05-08T03:44:10.875Z,65.84
2023-05-08T03:46:41.676Z,65.78
2023-05-08T03:49:12.217Z,65.65
2023-05-08T03:51:46.104Z,65.76
2023-05-08T03:54:17.165Z,65.91
2023-05-08T03:56:48.020Z,65.89
2023-05-08T03:59:24.406Z,66.09
2023-05-08T04:02:01.729Z,66.12
2023-05-08T04:04:41.015Z,66.10
2023-05-08T04:07:27.448Z,66.04
2023-05-08T04:10:03.048Z,66.23
2023-05-08T04:12:40.193Z,66.27
2023-05-08T04:15:16.777Z,66.21
2023-05-08T04:17:52.041Z,66.16
2023-05-08T04:20:23.752Z,66.36
2023-05-08T04:22:57.686Z,66.27
2023-05-08T04:25:28.665Z,66.46
2023-05-08T04:27:58.784Z,66.46
2023-05-08T04:30:29.635Z,66.69
2023-05-08T04:33:00.065Z,66.50
2023-05-08T04:35:29.998Z,66.36
2023-05-08T04:38:02.808Z,66.47
2023-05-08T04:40:32.395Z,66.31
2023-05-08T04:43:02.432Z,66.19
2023-05-08T04:45:31.948Z,66.20
2023-05-08T04:48:01.602Z,66.64
2023-05-08T04:50:31.112Z,66.47
2023-05-08T04:53:03.131Z,66.23
2023-05-08T04:55:32.832Z,66.14
2023-05-08T04:58:02.268Z,66.33
2023-05-08T05:00:31.761Z,66.57
2023-05-08T05:03:01.500Z,66.72
2023-05-08T05:05:31.240Z,66.67
2023-05-08T05:08:04.314Z,66.37
2023-05-08T05:10:33.803Z,66.76
2023-05-08T05:13:03.393Z,66.50
2023-05-08T05:15:33.394Z,66.52
2023-05-08T05:18:02.927Z,66.50
2023-05-08T05:20:32.551Z,66.31
2023-05-08T05:23:04.856Z,66.24
2023-05-08T05:25:34.353Z,66.40
2023-05-08T05:28:04.184Z,66.18
2023-05-08T05:30:34.122Z,66.33
2023-05-08T05:33:03.708Z,66.19
2023-05-08T05:35:33.624Z,65.97
2023-05-08T05:38:06.398Z,65.77
2023-05-08T05:40:36.286Z,65.81
2023-05-08T05:43:06.044Z,66.04
2023-05-08T05:45:36.313Z,65.91
2023-05-08T05:48:06.474Z,66.23
2023-05-08T05:50:37.790Z,66.00
2023-05-08T05:53:10.022Z,66.10
2023-05-08T05:55:39.678Z,65.85
2023-05-08T05:58:09.676Z,66.03
2023-05-08T06:00:39.203Z,65.74
2023-05-08T06:03:08.790Z,65.74
2023-05-08T06:05:39.222Z,65.76
2023-05-08T06:08:11.478Z,65.77
2023-05-08T06:10:40.964Z,65.72
2023-05-08T06:13:11.333Z,66.09
2023-05-08T06:15:40.936Z,65.91
2023-05-08T06:18:10.506Z,65.78
2023-05-08T06:20:40.424Z,65.91
2023-05-08T06:23:12.448Z,65.77
2023-05-08T06:25:41.890Z,65.84
2023-05-08T06:28:11.337Z,65.74
2023-05-08T06:30:40.795Z,65.43
2023-05-08T06:33:12.816Z,65.40
2023-05-08T06:35:42.935Z,65.59
2023-05-08T06:38:14.950Z,65.53
2023-05-08T06:40:46.401Z,65.59
2023-05-08T06:43:16.507Z,65.30
2023-05-08T06:45:47.109Z,65.09
2023-05-08T06:48:16.572Z,65.21
2023-05-08T06:50:46.984Z,65.12
2023-05-08T06:53:18.989Z,65.17
2023-05-08T06:55:48.418Z,64.78
2023-05-08T06:58:17.969Z,65.01
2023-05-08T07:00:47.461Z,65.07
2023-05-08T07:03:17.039Z,65.12
2023-05-08T07:05:46.577Z,64.88
2023-05-08T07:08:15.980Z,65.34
2023-05-08T07:10:48.304Z,65.04
2023-05-08T07:13:21.873Z,64.91
2023-05-08T07:15:51.653Z,64.95
2023-05-08T07:18:21.133Z,64.60
2023-05-08T07:20:50.678Z,65.03
2023-05-08T07:23:20.150Z,65.19
2023-05-08T07:25:52.138Z,64.93
2023-05-08T07:28:21.633Z,64.62
2023-05-08T07:30:51.759Z,64.50
2023-05-08T07:33:21.401Z,64.79
2023-05-08T07:35:51.220Z,64.94
2023-05-08T07:38:20.664Z,65.08
2023-05-08T07:40:57.199Z,64.64
2023-05-08T07:43:27.088Z,64.65
2023-05-08T07:45:56.754Z,64.54
2023-05-08T07:48:26.527Z,64.58
2023-05-08T07:50:56.617Z,64.30
2023-05-08T07:53:26.184Z,63.98
2023-05-08T07:55:58.212Z,64.07
2023-05-08T07:58:27.785Z,63.67
2023-05-08T08:00:57.398Z,63.80
2023-05-08T08:03:27.093Z,63.70
2023-05-08T08:05:56.635Z,63.95
2023-05-08T08:08:26.096Z,63.58
2023-05-08T08:10:58.125Z,64.05
2023-05-08T08:13:27.761Z,64.13
2023-05-08T08:15:57.387Z,64.10
2023-05-08T08:18:26.845Z,64.11
2023-05-08T08:20:56.328Z,64.30
2023-05-08T08:23:25.915Z,63.79
2023-05-08T08:25:57.928Z,63.36
2023-05-08T08:28:27.553Z,63.79
2023-05-08T08:30:57.405Z,63.47
2023-05-08T08:33:27.062Z,62.83
2023-05-08T08:35:56.562Z,62.77
2023-05-08T08:38:26.019Z,62.56
2023-05-08T08:40:58.212Z,62.83
2023-05-08T08:43:28.717Z,62.85
2023-05-08T08:45:59.489Z,62.85
2023-05-08T08:48:31.388Z,63.00
2023-05-08T08:51:05.261Z,62.93
2023-05-08T08:53:39.733Z,62.42
2023-05-08T08:56:12.644Z,62.05
2023-05-08T08:58:51.785Z,61.65
2023-05-08T09:01:23.461Z,62.29
2023-05-08T09:03:53.691Z,61.86
2023-05-08T09:06:23.289Z,61.99
2023-05-08T09:08:53.770Z,61.71
2023-05-08T09:11:25.975Z,61.64
2023-05-08T09:13:55.508Z,61.14
2023-05-08T09:16:25.322Z,60.75
2023-05-08T09:18:54.856Z,61.20
2023-05-08T09:21:27.458Z,61.31
2023-05-08T09:24:00.916Z,61.47
2023-05-08T09:26:36.172Z,60.74
2023-05-08T09:29:13.497Z,61.26
2023-05-08T09:31:44.878Z,60.55
2023-05-08T09:34:25.315Z,60.89
2023-05-08T09:36:54.779Z,60.82
2023-05-08T09:39:28.004Z,60.94
2023-05-08T09:42:04.717Z,60.50
2023-05-08T09:44:47.517Z,60.56
2023-05-08T09:47:18.959Z,60.51
2023-05-08T09:50:01.901Z,60.57
2023-05-08T09:52:31.686Z,60.43
2023-05-08T09:55:02.281Z,60.03
2023-05-08T09:57:36.594Z,59.86
2023-05-08T10:00:10.493Z,60.30
2023-05-08T10:02:43.382Z,59.70
2023-05-08T10:05:27.268Z,58.36
2023-05-08T10:07:57.154Z,58.53
2023-05-08T10:10:28.963Z,58.71
2023-05-08T10:13:01.592Z,57.69
2023-05-08T10:15:31.813Z,58.25
2023-05-08T10:18:07.891Z,57.61
2023-05-08T10:20:41.965Z,57.64
2023-05-08T10:23:17.736Z,56.48
2023-05-08T10:25:50.299Z,56.21
2023-05-08T10:28:43.427Z,56.37
2023-05-08T10:31:15.962Z,56.16
2023-05-08T10:33:48.695Z,56.45
2023-05-08T10:36:18.673Z,57.13
2023-05-08T10:38:48.987Z,57.13
2023-05-08T10:41:18.562Z,55.86
2023-05-08T10:43:52.904Z,56.59
2023-05-08T10:46:28.606Z,56.79
2023-05-08T10:49:07.779Z,56.35
2023-05-08T10:51:44.627Z,55.29
2023-05-08T10:54:21.901Z,55.40
2023-05-08T10:56:51.649Z,55.27
2023-05-08T10:59:23.984Z,55.52
2023-05-08T11:01:53.645Z,55.96
2023-05-08T11:04:24.289Z,56.06
2023-05-08T11:06:55.415Z,54.78
2023-05-08T11:09:25.876Z,55.52
2023-05-08T11:12:11.080Z,54.34
2023-05-08T11:14:45.896Z,54.76
2023-05-08T11:17:16.328Z,54.41
2023-05-08T11:19:58.858Z,54.39
2023-05-08T11:22:30.384Z,54.26
2023-05-08T11:25:11.856Z,54.30
2023-05-08T11:28:11.567Z,53.62
2023-05-08T11:30:43.830Z,53.55
2023-05-08T11:33:18.091Z,53.70
2023-05-08T11:35:58.725Z,53.65
2023-05-08T11:38:30.915Z,53.28
2023-05-08T11:41:02.951Z,53.37
2023-05-08T11:43:52.514Z,53.82
2023-05-08T11:46:24.961Z,52.94
2023-05-08T11:49:02.538Z,53.36
2023-05-08T11:51:34.731Z,53.13
2023-05-08T11:54:04.400Z,53.39
2023-05-08T11:56:34.472Z,53.22
2023-05-08T11:59:08.916Z,65.04
2023-05-08T12:01:40.985Z,54.74
2023-05-08T12:04:12.249Z,54.54
2023-05-08T12:06:43.332Z,52.36
2023-05-08T12:09:15.483Z,51.86
2023-05-08T12:11:45.771Z,51.39
2023-05-08T12:14:16.079Z,51.41
2023-05-08T12:16:48.249Z,50.92
2023-05-08T12:19:17.805Z,50.51
2023-05-08T12:21:50.246Z,49.89
2023-05-08T12:24:23.549Z,49.73
2023-05-08T12:26:57.176Z,49.63
2023-05-08T12:29:26.709Z,49.55
2023-05-08T12:31:59.013Z,49.64
2023-05-08T12:34:29.113Z,49.14
2023-05-08T12:37:06.118Z,49.23
2023-05-08T12:43:13.113Z,48.61
2023-05-08T12:45:44.063Z,48.25
2023-05-08T12:48:18.723Z,48.92
2023-05-08T12:50:49.201Z,48.33
2023-05-08T12:53:20.046Z,48.21
2023-05-08T12:55:55.480Z,47.41
2023-05-08T13:05:58.153Z,47.61
2023-05-08T13:08:32.924Z,47.92
2023-05-08T13:18:32.528Z,48.34
2023-05-08T13:21:04.807Z,48.43
2023-05-08T13:23:34.421Z,48.90
2023-05-08T13:26:04.317Z,48.29
2023-05-08T13:28:33.886Z,47.75
2023-05-08T13:31:03.384Z,47.50
2023-05-08T13:33:32.913Z,47.86
2023-05-08T13:36:05.000Z,47.94
2023-05-08T13:38:34.770Z,47.51
2023-05-08T13:41:04.277Z,48.46
2023-05-08T13:43:35.804Z,48.31
2023-05-08T13:46:06.931Z,47.84
2023-05-08T13:48:37.043Z,47.09
2023-05-08T13:51:09.337Z,47.59
2023-05-08T13:53:39.359Z,47.77
2023-05-08T13:56:09.253Z,48.02
2023-05-08T13:58:38.868Z,47.60
2023-05-08T14:01:24.976Z,47.40
2023-05-08T14:03:55.882Z,47.81
2023-05-08T14:06:28.186Z,47.87
2023-05-08T14:08:57.723Z,46.53
2023-05-08T14:11:27.374Z,47.15
2023-05-08T14:13:56.851Z,47.48
2023-05-08T14:16:26.359Z,47.13
2023-05-08T14:18:56.054Z,46.88
2023-05-08T14:21:28.269Z,46.83
2023-05-08T14:23:57.738Z,47.58
2023-05-08T14:26:27.173Z,47.65
2023-05-08T14:28:56.689Z,46.83
2023-05-08T14:31:26.212Z,47.11
2023-05-08T14:33:55.790Z,47.57
2023-05-08T14:36:27.978Z,47.96
2023-05-08T14:38:57.462Z,47.13
2023-05-08T14:41:30.475Z,47.45
2023-05-08T14:44:01.354Z,46.73
2023-05-08T14:46:31.348Z,47.42
2023-05-08T14:49:00.854Z,47.58
2023-05-08T14:51:32.867Z,47.52
2023-05-08T14:54:02.574Z,48.08
2023-05-08T14:56:40.403Z,47.59
2023-05-08T14:59:16.326Z,46.92
2023-05-08T15:01:45.795Z,47.27
2023-05-08T15:04:15.535Z,46.81
2023-05-08T15:06:47.714Z,47.52
2023-05-08T15:09:17.257Z,47.43
2023-05-08T15:11:47.042Z,47.99
2023-05-08T15:14:16.528Z,48.04
2023-05-08T15:16:46.670Z,47.83
2023-05-08T15:19:17.088Z,47.68
2023-05-08T15:21:49.146Z,47.85
2023-05-08T15:24:18.648Z,48.07
2023-05-08T15:26:48.137Z,48.33
2023-05-08T15:29:17.578Z,48.23
2023-05-08T15:31:47.091Z,48.51
2023-05-08T15:34:16.607Z,47.68
2023-05-08T15:36:48.723Z,48.61
2023-05-08T15:39:21.370Z,48.00
2023-05-08T15:41:50.793Z,48.17
2023-05-08T15:44:22.162Z,48.17
2023-05-08T15:46:52.193Z,48.23
2023-05-08T15:49:25.881Z,47.88
2023-05-08T15:51:58.475Z,47.77
2023-05-08T15:54:27.814Z,48.49
2023-05-08T15:56:57.236Z,47.37
2023-05-08T15:59:26.679Z,48.23
2023-05-08T16:01:56.153Z,48.63
2023-05-08T16:04:25.599Z,48.51
2023-05-08T16:06:55.964Z,48.53
2023-05-08T16:09:28.200Z,47.91
2023-05-08T16:11:57.702Z,48.11
2023-05-08T16:14:27.179Z,47.83
2023-05-08T16:16:56.598Z,47.71
2023-05-08T16:19:26.080Z,47.00
2023-05-08T16:21:55.637Z,47.20
2023-05-08T16:24:25.108Z,47.92
2023-05-08T16:26:57.304Z,47.88
2023-05-08T16:29:26.776Z,47.62
2023-05-08T16:31:56.566Z,46.85
2023-05-08T16:34:26.103Z,47.88
2023-05-08T16:36:55.568Z,47.45
2023-05-08T16:39:24.993Z,47.63
2023-05-08T16:41:57.120Z,47.72
2023-05-08T16:44:26.647Z,47.94
2023-05-08T16:46:56.179Z,48.02
2023-05-08T16:49:25.661Z,47.92
2023-05-08T16:51:55.105Z,47.80
2023-05-08T16:54:24.546Z,47.51
2023-05-08T16:56:54.089Z,47.30
2023-05-08T16:59:26.251Z,46.92
2023-05-08T17:01:55.729Z,47.45
2023-05-08T17:04:25.332Z,47.19
2023-05-08T17:06:54.838Z,47.17
2023-05-08T17:09:25.444Z,47.03
2023-05-08T17:11:54.971Z,46.64
2023-05-08T17:14:27.014Z,47.20
2023-05-08T17:16:56.476Z,47.49
2023-05-08T17:19:25.900Z,46.78
2023-05-08T17:21:56.503Z,46.81
2023-05-08T17:24:27.644Z,47.39
2023-05-08T17:26:57.086Z,46.59
2023-05-08T17:29:29.282Z,47.51
2023-05-08T17:31:58.728Z,47.33
2023-05-08T17:34:28.534Z,47.05
2023-05-08T17:36:58.126Z,48.20
2023-05-08T17:39:27.959Z,47.34
2023-05-08T17:41:57.512Z,47.17
2023-05-08T17:44:29.596Z,47.94
2023-05-08T17:46:59.042Z,46.96
2023-05-08T17:49:28.562Z,47.30
2023-05-08T17:51:58.081Z,46.66
2023-05-08T17:54:27.560Z,47.72
2023-05-08T17:56:56.971Z,47.43
2023-05-08T17:59:28.971Z,47.49
2023-05-08T18:01:58.427Z,47.48
2023-05-08T18:04:28.996Z,47.16
2023-05-08T18:07:01.406Z,47.20
2023-05-08T18:09:30.924Z,47.64
2023-05-08T18:12:02.601Z,47.67
2023-05-08T18:14:35.576Z,47.38
2023-05-08T18:17:05.586Z,48.03
2023-05-08T18:19:35.497Z,47.83
2023-05-08T18:22:04.917Z,47.78
2023-05-08T18:24:34.324Z,48.07
2023-05-08T18:27:03.774Z,47.33
2023-05-08T18:29:35.773Z,47.55
2023-05-08T18:32:05.194Z,47.80
2023-05-08T18:34:34.623Z,47.79
2023-05-08T18:37:04.148Z,47.84
2023-05-08T18:39:33.634Z,47.98
2023-05-08T18:42:03.482Z,47.92
2023-05-08T18:44:35.509Z,48.17
2023-05-08T18:47:05.391Z,48.41
2023-05-08T18:49:34.984Z,48.48
2023-05-08T18:52:04.420Z,48.35
2023-05-08T18:54:33.849Z,48.55
2023-05-08T18:57:03.323Z,48.35
2023-05-08T18:59:35.471Z,48.33
2023-05-08T19:02:04.905Z,48.58
2023-05-08T19:04:34.386Z,48.51
2023-05-08T19:07:03.821Z,48.56
2023-05-08T19:09:34.128Z,48.58
2023-05-08T19:12:03.609Z,48.54
2023-05-08T19:14:35.625Z,48.81
2023-05-08T19:17:05.091Z,49.03
2023-05-08T19:19:34.526Z,48.56
2023-05-08T19:22:03.962Z,48.88
2023-05-08T19:24:34.323Z,48.81
2023-05-08T19:27:04.221Z,48.97
2023-05-08T19:29:36.282Z,49.25
2023-05-08T19:32:05.968Z,49.04
2023-05-08T19:34:37.158Z,48.70
2023-05-08T19:37:06.660Z,49.07
2023-05-08T19:39:36.058Z,49.00
2023-05-08T19:42:05.651Z,48.63
2023-05-08T19:44:37.948Z,48.83
2023-05-08T19:47:07.527Z,48.82
2023-05-08T19:49:36.971Z,49.23
2023-05-08T19:52:06.599Z,49.61
2023-05-08T19:54:36.112Z,49.20
2023-05-08T19:57:05.569Z,49.08
2023-05-08T19:59:37.563Z,49.11
2023-05-08T20:02:07.087Z,49.39
2023-05-08T20:04:48.670Z,49.42
2023-05-08T20:07:26.213Z,48.86
2023-05-08T20:09:55.818Z,48.85
2023-05-08T20:12:25.401Z,48.79
2023-05-08T20:15:00.714Z,48.87
2023-05-08T20:17:30.607Z,49.24
2023-05-08T20:20:00.603Z,48.81
2023-05-08T20:22:30.799Z,49.02
2023-05-08T20:25:04.234Z,48.68
2023-05-08T20:27:34.402Z,48.39
2023-05-08T20:30:07.241Z,48.70
2023-05-08T20:32:36.798Z,48.26
2023-05-08T20:35:06.605Z,48.58
2023-05-08T20:37:36.087Z,47.97
2023-05-08T20:40:05.685Z,48.28
2023-05-08T20:42:35.155Z,48.35
2023-05-08T20:45:08.185Z,48.58
2023-05-08T20:47:37.831Z,47.25
2023-05-08T20:50:08.833Z,48.03
2023-05-08T20:52:39.939Z,47.65
2023-05-08T20:55:11.582Z,48.00
2023-05-08T20:57:41.251Z,47.95
2023-05-08T21:00:14.421Z,48.34
2023-05-08T21:02:44.396Z,48.11
2023-05-08T21:05:14.307Z,48.22
2023-05-08T21:07:44.080Z,47.55
2023-05-08T21:10:14.532Z,48.33
2023-05-08T21:12:45.529Z,48.04
2023-05-08T21:15:17.737Z,48.09
2023-05-08T21:17:47.231Z,48.24
2023-05-08T21:20:17.198Z,47.93
2023-05-08T21:22:47.677Z,48.27
2023-05-08T21:25:17.349Z,48.21
2023-05-08T21:27:47.012Z,48.62
2023-05-08T21:30:20.050Z,48.30
2023-05-08T21:32:50.069Z,48.77
2023-05-08T21:35:19.624Z,48.67
2023-05-08T21:37:49.197Z,48.87
2023-05-08T21:40:18.705Z,48.52
2023-05-08T21:42:48.363Z,49.12
2023-05-08T21:45:20.461Z,48.86
2023-05-08T21:47:49.959Z,48.97
2023-05-08T21:50:19.824Z,49.13
2023-05-08T21:52:49.384Z,48.42
2023-05-08T21:55:18.935Z,48.71
2023-05-08T21:57:48.457Z,49.11
2023-05-08T22:00:22.184Z,48.98
2023-05-08T22:02:51.803Z,48.96
2023-05-08T22:05:21.352Z,48.46
2023-05-08T22:07:50.904Z,48.80
2023-05-08T22:10:21.691Z,48.42
2023-05-08T22:12:51.683Z,48.73
2023-05-08T22:15:30.239Z,48.28
2023-05-08T22:18:03.501Z,48.63
2023-05-08T22:20:33.040Z,48.77
2023-05-08T22:23:02.563Z,48.86
2023-05-08T22:25:32.020Z,48.67
2023-05-08T22:28:02.364Z,48.39
2023-05-08T22:30:34.506Z,48.65
2023-05-08T22:33:04.118Z,49.16
2023-05-08T22:35:34.490Z,48.62
2023-05-08T22:38:03.995Z,48.72
2023-05-08T22:40:33.496Z,49.11
2023-05-08T22:43:03.271Z,49.14
2023-05-08T22:45:35.427Z,48.96
2023-05-08T22:48:05.962Z,48.94
2023-05-08T22:50:35.540Z,48.99
2023-05-08T22:53:08.102Z,49.33
2023-05-08T22:55:38.030Z,49.28
2023-05-08T22:58:07.568Z,48.98
2023-05-08T23:00:39.696Z,49.01
2023-05-08T23:03:09.253Z,49.48
2023-05-08T23:05:39.021Z,49.81
2023-05-08T23:08:08.994Z,49.67
2023-05-08T23:10:38.490Z,49.63
2023-05-08T23:13:07.982Z,49.70
2023-05-08T23:15:40.096Z,49.83
2023-05-08T23:18:09.736Z,50.29
2023-05-08T23:20:39.587Z,49.78
2023-05-08T23:23:09.931Z,49.93
2023-05-08T23:25:39.464Z,49.97
2023-05-08T23:28:08.923Z,49.87
2023-05-08T23:30:41.089Z,50.06
2023-05-08T23:33:10.786Z,50.20
2023-05-08T23:35:40.276Z,50.33
2023-05-08T23:38:09.710Z,50.77
2023-05-08T23:40:39.245Z,50.42
2023-05-08T23:43:08.899Z,49.99
2023-05-08T23:45:41.382Z,50.71
2023-05-08T23:48:10.948Z,50.12
2023-05-08T23:50:40.865Z,50.46
2023-05-08T23:53:10.640Z,50.63
2023-05-08T23:55:40.357Z,50.84
2023-05-08T23:58:10.028Z,50.86
